BXO weather

Buochs Airport
Buochs, Canton of Nidwalden, Switzerland

Public forecast

Using degrees Celsius for public forecast. Weather courtesy of forecast.io.

METAR (pilot weather report)

Retrieved 2019/09/23 16:20 UTC (31 minutes ago):

LSZC 231620Z AUTO 22003KT 9999 BKN050 BKN070 17/11 Q1018

TAF (pilot weather forecast)

Forecast is more than 6 hours old.

Closest forecast is Alpnach Air Base, 5.0 nm (9.2 km) WSW. Retrieved 2019/09/23 10:00 UTC (7 hours ago):

TAF LSMA 230925Z 2310/2416 VRB03KT 5000 RA FEW005 SCT015 BKN030 PROB40 TEMPO 2310/2312 4500 SHRA BKN012 BECMG 2311/2314 9999 NSW PROB40 2400/2406 4000 MIFG PROB40 TEMPO 2411/2416 RA